sensor_id;sensor_type;location;lat;lon;timestamp;P1;durP1;ratioP1;P2;durP2;ratioP2
2998;SDS011;1509;51.964;7.628;2023-08-01T00:01:31;3.83;;;1.90;;
2998;SDS011;1509;51.964;7.628;2023-08-01T00:03:57;3.10;;;2.20;;
2998;SDS011;1509;51.964;7.628;2023-08-01T00:06:23;3.70;;;2.23;;
2998;SDS011;1509;51.964;7.628;2023-08-01T00:08:50;2.50;;;2.00;;
2998;SDS011;1509;51.964;7.628;2023-08-01T00:11:16;3.90;;;1.80;;
2998;SDS011;1509;51.964;7.628;2023-08-01T00:13:41;3.87;;;2.30;;
2998;SDS011;1509;51.964;7.628;2023-08-01T00:16:08;6.37;;;2.47;;
2998;SDS011;1509;51.964;7.628;2023-08-01T00:18:34;3.47;;;2.00;;
2998;SDS011;1509;51.964;7.628;2023-08-01T00:21:00;4.23;;;2.47;;
2998;SDS011;1509;51.964;7.628;2023-08-01T00:23:35;4.17;;;2.40;;
2998;SDS011;1509;51.964;7.628;2023-08-01T00:26:01;7.50;;;2.27;;
2998;SDS011;1509;51.964;7.628;2023-08-01T00:28:26;5.53;;;2.30;;
2998;SDS011;1509;51.964;7.628;2023-08-01T00:31:01;4.50;;;2.50;;
2998;SDS011;1509;51.964;7.628;2023-08-01T00:33:27;4.43;;;2.53;;
2998;SDS011;1509;51.964;7.628;2023-08-01T00:35:56;3.53;;;2.80;;
2998;SDS011;1509;51.964;7.628;2023-08-01T00:38:22;4.30;;;2.47;;
2998;SDS011;1509;51.964;7.628;2023-08-01T00:40:47;6.30;;;2.80;;
2998;SDS011;1509;51.964;7.628;2023-08-01T00:43:13;3.60;;;2.27;;
2998;SDS011;1509;51.964;7.628;2023-08-01T00:45:38;3.20;;;2.47;;
2998;SDS011;1509;51.964;7.628;2023-08-01T00:48:04;4.10;;;2.80;;
2998;SDS011;1509;51.964;7.628;2023-08-01T00:50:30;5.73;;;2.60;;
2998;SDS011;1509;51.964;7.628;2023-08-01T00:52:56;3.67;;;2.77;;
2998;SDS011;1509;51.964;7.628;2023-08-01T00:55:21;3.27;;;1.97;;
2998;SDS011;1509;51.964;7.628;2023-08-01T00:57:48;2.57;;;2.10;;
2998;SDS011;1509;51.964;7.628;2023-08-01T01:00:13;3.37;;;1.83;;
2998;SDS011;1509;51.964;7.628;2023-08-01T01:02:39;3.37;;;2.60;;
2998;SDS011;1509;51.964;7.628;2023-08-01T01:05:05;3.27;;;2.30;;
2998;SDS011;1509;51.964;7.628;2023-08-01T01:07:31;3.27;;;2.53;;
2998;SDS011;1509;51.964;7.628;2023-08-01T01:09:58;3.30;;;2.03;;
2998;SDS011;1509;51.964;7.628;2023-08-01T01:12:24;2.33;;;1.90;;
2998;SDS011;1509;51.964;7.628;2023-08-01T01:14:49;4.43;;;2.00;;
2998;SDS011;1509;51.964;7.628;2023-08-01T01:17:15;3.30;;;2.10;;
2998;SDS011;1509;51.964;7.628;2023-08-01T01:19:41;2.30;;;2.10;;
2998;SDS011;1509;51.964;7.628;2023-08-01T01:22:06;2.70;;;2.20;;
2998;SDS011;1509;51.964;7.628;2023-08-01T01:24:34;3.20;;;2.07;;
2998;SDS011;1509;51.964;7.628;2023-08-01T01:27:00;4.23;;;2.30;;
2998;SDS011;1509;51.964;7.628;2023-08-01T01:29:28;3.10;;;2.17;;
2998;SDS011;1509;51.964;7.628;2023-08-01T01:31:55;4.37;;;2.30;;
2998;SDS011;1509;51.964;7.628;2023-08-01T01:34:21;3.50;;;1.97;;
2998;SDS011;1509;51.964;7.628;2023-08-01T01:36:47;2.73;;;2.17;;
2998;SDS011;1509;51.964;7.628;2023-08-01T01:39:13;6.27;;;2.50;;
2998;SDS011;1509;51.964;7.628;2023-08-01T01:41:39;4.13;;;2.70;;
2998;SDS011;1509;51.964;7.628;2023-08-01T01:44:04;3.27;;;2.00;;
2998;SDS011;1509;51.964;7.628;2023-08-01T01:46:30;3.70;;;2.60;;
2998;SDS011;1509;51.964;7.628;2023-08-01T01:48:56;2.97;;;2.40;;
2998;SDS011;1509;51.964;7.628;2023-08-01T01:51:22;3.30;;;1.93;;
2998;SDS011;1509;51.964;7.628;2023-08-01T01:53:50;2.57;;;2.00;;
2998;SDS011;1509;51.964;7.628;2023-08-01T01:56:15;4.50;;;2.60;;
2998;SDS011;1509;51.964;7.628;2023-08-01T01:58:41;3.83;;;2.50;;
2998;SDS011;1509;51.964;7.628;2023-08-01T02:01:07;4.17;;;2.20;;
2998;SDS011;1509;51.964;7.628;2023-08-01T02:03:32;5.33;;;2.30;;
2998;SDS011;1509;51.964;7.628;2023-08-01T02:05:58;6.20;;;3.03;;
2998;SDS011;1509;51.964;7.628;2023-08-01T02:08:23;3.83;;;2.50;;
2998;SDS011;1509;51.964;7.628;2023-08-01T02:10:49;3.73;;;2.90;;
2998;SDS011;1509;51.964;7.628;2023-08-01T02:13:14;4.50;;;3.20;;
2998;SDS011;1509;51.964;7.628;2023-08-01T02:15:40;4.23;;;2.77;;
2998;SDS011;1509;51.964;7.628;2023-08-01T02:18:06;3.80;;;2.93;;
2998;SDS011;1509;51.964;7.628;2023-08-01T02:20:31;4.43;;;3.40;;
2998;SDS011;1509;51.964;7.628;2023-08-01T02:22:57;4.37;;;3.33;;
2998;SDS011;1509;51.964;7.628;2023-08-01T02:25:25;5.13;;;3.30;;
2998;SDS011;1509;51.964;7.628;2023-08-01T02:27:51;7.67;;;3.97;;
2998;SDS011;1509;51.964;7.628;2023-08-01T02:30:16;5.50;;;3.80;;
2998;SDS011;1509;51.964;7.628;2023-08-01T02:32:42;4.63;;;3.83;;
2998;SDS011;1509;51.964;7.628;2023-08-01T02:35:08;4.10;;;3.40;;
2998;SDS011;1509;51.964;7.628;2023-08-01T02:37:33;5.73;;;3.00;;
2998;SDS011;1509;51.964;7.628;2023-08-01T02:39:59;5.93;;;3.40;;
2998;SDS011;1509;51.964;7.628;2023-08-01T02:42:26;5.00;;;3.70;;
2998;SDS011;1509;51.964;7.628;2023-08-01T02:44:51;5.60;;;3.90;;
2998;SDS011;1509;51.964;7.628;2023-08-01T02:47:17;9.13;;;4.37;;
2998;SDS011;1509;51.964;7.628;2023-08-01T02:49:42;5.93;;;4.37;;
2998;SDS011;1509;51.964;7.628;2023-08-01T02:52:08;6.10;;;4.10;;
2998;SDS011;1509;51.964;7.628;2023-08-01T02:54:35;11.00;;;4.20;;
2998;SDS011;1509;51.964;7.628;2023-08-01T02:57:00;9.73;;;5.50;;
2998;SDS011;1509;51.964;7.628;2023-08-01T02:59:26;7.57;;;4.57;;
2998;SDS011;1509;51.964;7.628;2023-08-01T03:01:51;6.13;;;4.63;;
2998;SDS011;1509;51.964;7.628;2023-08-01T03:04:17;7.47;;;5.00;;
2998;SDS011;1509;51.964;7.628;2023-08-01T03:06:43;8.70;;;5.23;;
2998;SDS011;1509;51.964;7.628;2023-08-01T03:09:09;7.60;;;5.20;;
2998;SDS011;1509;51.964;7.628;2023-08-01T03:11:37;13.13;;;6.00;;
2998;SDS011;1509;51.964;7.628;2023-08-01T03:14:03;12.43;;;4.70;;
2998;SDS011;1509;51.964;7.628;2023-08-01T03:16:31;12.70;;;5.80;;
2998;SDS011;1509;51.964;7.628;2023-08-01T03:18:57;9.63;;;6.40;;
2998;SDS011;1509;51.964;7.628;2023-08-01T03:21:24;10.10;;;6.23;;
2998;SDS011;1509;51.964;7.628;2023-08-01T03:23:51;9.23;;;6.00;;
2998;SDS011;1509;51.964;7.628;2023-08-01T03:26:17;12.97;;;6.63;;
2998;SDS011;1509;51.964;7.628;2023-08-01T03:28:43;10.33;;;6.93;;
2998;SDS011;1509;51.964;7.628;2023-08-01T03:31:09;9.63;;;7.20;;
2998;SDS011;1509;51.964;7.628;2023-08-01T03:33:34;10.87;;;6.27;;
2998;SDS011;1509;51.964;7.628;2023-08-01T03:36:00;10.40;;;6.60;;
2998;SDS011;1509;51.964;7.628;2023-08-01T03:38:25;13.10;;;6.60;;
2998;SDS011;1509;51.964;7.628;2023-08-01T03:40:51;9.77;;;6.10;;
2998;SDS011;1509;51.964;7.628;2023-08-01T03:43:17;15.50;;;6.60;;
2998;SDS011;1509;51.964;7.628;2023-08-01T03:45:43;19.40;;;6.90;;
2998;SDS011;1509;51.964;7.628;2023-08-01T03:48:08;10.70;;;6.87;;
2998;SDS011;1509;51.964;7.628;2023-08-01T03:50:34;11.50;;;6.13;;
2998;SDS011;1509;51.964;7.628;2023-08-01T03:53:00;9.67;;;6.87;;
2998;SDS011;1509;51.964;7.628;2023-08-01T03:55:26;12.40;;;7.40;;
2998;SDS011;1509;51.964;7.628;2023-08-01T03:57:52;11.80;;;7.50;;
2998;SDS011;1509;51.964;7.628;2023-08-01T04:00:17;11.80;;;6.50;;
2998;SDS011;1509;51.964;7.628;2023-08-01T04:02:43;12.17;;;7.63;;
2998;SDS011;1509;51.964;7.628;2023-08-01T04:05:09;11.87;;;7.90;;
2998;SDS011;1509;51.964;7.628;2023-08-01T04:07:36;19.60;;;7.93;;
2998;SDS011;1509;51.964;7.628;2023-08-01T04:10:02;16.10;;;8.40;;
2998;SDS011;1509;51.964;7.628;2023-08-01T04:12:28;17.20;;;8.43;;
2998;SDS011;1509;51.964;7.628;2023-08-01T04:14:57;15.57;;;8.93;;
2998;SDS011;1509;51.964;7.628;2023-08-01T04:17:23;14.23;;;8.10;;
2998;SDS011;1509;51.964;7.628;2023-08-01T04:19:49;13.97;;;8.47;;
2998;SDS011;1509;51.964;7.628;2023-08-01T04:22:14;13.87;;;8.83;;
2998;SDS011;1509;51.964;7.628;2023-08-01T04:24:40;19.20;;;9.80;;
2998;SDS011;1509;51.964;7.628;2023-08-01T04:27:06;16.43;;;8.70;;
2998;SDS011;1509;51.964;7.628;2023-08-01T04:29:31;13.90;;;9.63;;
2998;SDS011;1509;51.964;7.628;2023-08-01T04:31:57;19.13;;;9.00;;
2998;SDS011;1509;51.964;7.628;2023-08-01T04:34:23;14.40;;;9.00;;
2998;SDS011;1509;51.964;7.628;2023-08-01T04:36:51;16.60;;;8.97;;
2998;SDS011;1509;51.964;7.628;2023-08-01T04:39:17;13.87;;;9.20;;
2998;SDS011;1509;51.964;7.628;2023-08-01T04:41:43;15.13;;;8.33;;
2998;SDS011;1509;51.964;7.628;2023-08-01T04:44:11;15.93;;;7.60;;
2998;SDS011;1509;51.964;7.628;2023-08-01T04:46:36;16.53;;;8.27;;
2998;SDS011;1509;51.964;7.628;2023-08-01T04:49:02;14.57;;;8.00;;
2998;SDS011;1509;51.964;7.628;2023-08-01T04:51:27;17.23;;;8.53;;
2998;SDS011;1509;51.964;7.628;2023-08-01T04:53:53;19.43;;;8.67;;
2998;SDS011;1509;51.964;7.628;2023-08-01T04:56:18;17.00;;;9.37;;
2998;SDS011;1509;51.964;7.628;2023-08-01T04:58:44;14.70;;;9.33;;
2998;SDS011;1509;51.964;7.628;2023-08-01T05:01:10;14.33;;;8.57;;
2998;SDS011;1509;51.964;7.628;2023-08-01T05:03:35;19.10;;;9.23;;
2998;SDS011;1509;51.964;7.628;2023-08-01T05:06:01;21.50;;;9.87;;
2998;SDS011;1509;51.964;7.628;2023-08-01T05:08:26;22.23;;;8.57;;
2998;SDS011;1509;51.964;7.628;2023-08-01T05:10:52;14.37;;;9.63;;
2998;SDS011;1509;51.964;7.628;2023-08-01T05:13:18;20.60;;;9.63;;
2998;SDS011;1509;51.964;7.628;2023-08-01T05:15:46;16.03;;;9.10;;
2998;SDS011;1509;51.964;7.628;2023-08-01T05:18:13;15.90;;;9.23;;
2998;SDS011;1509;51.964;7.628;2023-08-01T05:20:40;16.87;;;9.80;;
2998;SDS011;1509;51.964;7.628;2023-08-01T05:23:06;21.40;;;9.60;;
2998;SDS011;1509;51.964;7.628;2023-08-01T05:25:31;22.17;;;10.03;;
2998;SDS011;1509;51.964;7.628;2023-08-01T05:27:57;14.10;;;8.77;;
2998;SDS011;1509;51.964;7.628;2023-08-01T05:30:23;20.03;;;10.03;;
2998;SDS011;1509;51.964;7.628;2023-08-01T05:32:49;16.70;;;10.37;;
2998;SDS011;1509;51.964;7.628;2023-08-01T05:35:15;25.10;;;10.40;;
2998;SDS011;1509;51.964;7.628;2023-08-01T05:37:40;21.73;;;12.20;;
2998;SDS011;1509;51.964;7.628;2023-08-01T05:40:06;24.10;;;11.40;;
2998;SDS011;1509;51.964;7.628;2023-08-01T05:42:32;19.03;;;12.47;;
2998;SDS011;1509;51.964;7.628;2023-08-01T05:44:58;18.03;;;11.20;;
2998;SDS011;1509;51.964;7.628;2023-08-01T05:47:24;20.30;;;12.00;;
2998;SDS011;1509;51.964;7.628;2023-08-01T05:49:49;18.00;;;11.90;;
2998;SDS011;1509;51.964;7.628;2023-08-01T05:52:15;23.73;;;12.00;;
2998;SDS011;1509;51.964;7.628;2023-08-01T05:54:40;30.93;;;13.97;;
2998;SDS011;1509;51.964;7.628;2023-08-01T05:57:07;16.67;;;11.47;;
2998;SDS011;1509;51.964;7.628;2023-08-01T05:59:32;23.50;;;12.63;;
2998;SDS011;1509;51.964;7.628;2023-08-01T06:01:58;21.00;;;13.07;;
2998;SDS011;1509;51.964;7.628;2023-08-01T06:04:24;18.00;;;12.00;;
2998;SDS011;1509;51.964;7.628;2023-08-01T06:06:49;26.67;;;13.20;;
2998;SDS011;1509;51.964;7.628;2023-08-01T06:09:15;22.70;;;12.10;;
2998;SDS011;1509;51.964;7.628;2023-08-01T06:11:40;24.13;;;12.90;;
2998;SDS011;1509;51.964;7.628;2023-08-01T06:14:06;25.10;;;13.47;;
2998;SDS011;1509;51.964;7.628;2023-08-01T06:16:32;26.37;;;13.40;;
2998;SDS011;1509;51.964;7.628;2023-08-01T06:18:58;23.50;;;13.47;;
2998;SDS011;1509;51.964;7.628;2023-08-01T06:21:23;21.50;;;12.53;;
2998;SDS011;1509;51.964;7.628;2023-08-01T06:23:49;25.20;;;13.77;;
2998;SDS011;1509;51.964;7.628;2023-08-01T06:26:15;20.63;;;13.60;;
2998;SDS011;1509;51.964;7.628;2023-08-01T06:28:41;23.13;;;14.33;;
2998;SDS011;1509;51.964;7.628;2023-08-01T06:31:07;26.97;;;13.40;;
2998;SDS011;1509;51.964;7.628;2023-08-01T06:33:32;27.07;;;12.43;;
2998;SDS011;1509;51.964;7.628;2023-08-01T06:35:58;28.17;;;13.87;;
2998;SDS011;1509;51.964;7.628;2023-08-01T06:38:23;23.30;;;13.80;;
2998;SDS011;1509;51.964;7.628;2023-08-01T06:40:49;22.00;;;13.10;;
2998;SDS011;1509;51.964;7.628;2023-08-01T06:43:15;23.60;;;14.33;;
2998;SDS011;1509;51.964;7.628;2023-08-01T06:45:40;22.70;;;13.40;;
2998;SDS011;1509;51.964;7.628;2023-08-01T06:48:06;30.50;;;14.93;;
2998;SDS011;1509;51.964;7.628;2023-08-01T06:50:32;33.37;;;14.53;;
2998;SDS011;1509;51.964;7.628;2023-08-01T06:52:58;41.83;;;16.20;;
2998;SDS011;1509;51.964;7.628;2023-08-01T06:55:23;30.53;;;14.53;;
2998;SDS011;1509;51.964;7.628;2023-08-01T06:57:49;28.73;;;16.70;;
2998;SDS011;1509;51.964;7.628;2023-08-01T07:00:14;31.33;;;16.30;;
2998;SDS011;1509;51.964;7.628;2023-08-01T07:02:40;28.70;;;16.17;;
2998;SDS011;1509;51.964;7.628;2023-08-01T07:05:06;24.37;;;15.70;;
2998;SDS011;1509;51.964;7.628;2023-08-01T07:07:32;35.23;;;15.93;;
2998;SDS011;1509;51.964;7.628;2023-08-01T07:09:57;23.67;;;15.23;;
2998;SDS011;1509;51.964;7.628;2023-08-01T07:12:23;26.23;;;15.47;;
2998;SDS011;1509;51.964;7.628;2023-08-01T07:14:48;25.20;;;14.20;;
2998;SDS011;1509;51.964;7.628;2023-08-01T07:17:14;21.53;;;12.70;;
2998;SDS011;1509;51.964;7.628;2023-08-01T07:19:39;23.90;;;13.00;;
2998;SDS011;1509;51.964;7.628;2023-08-01T07:22:05;30.40;;;16.40;;
2998;SDS011;1509;51.964;7.628;2023-08-01T07:24:31;33.60;;;17.30;;
2998;SDS011;1509;51.964;7.628;2023-08-01T07:26:56;28.37;;;15.97;;
2998;SDS011;1509;51.964;7.628;2023-08-01T07:29:22;33.93;;;16.73;;
2998;SDS011;1509;51.964;7.628;2023-08-01T07:31:47;25.50;;;14.10;;
2998;SDS011;1509;51.964;7.628;2023-08-01T07:34:13;33.80;;;16.57;;
2998;SDS011;1509;51.964;7.628;2023-08-01T07:36:39;22.67;;;14.87;;
2998;SDS011;1509;51.964;7.628;2023-08-01T07:39:04;29.93;;;15.40;;
2998;SDS011;1509;51.964;7.628;2023-08-01T07:41:30;27.47;;;14.97;;
2998;SDS011;1509;51.964;7.628;2023-08-01T07:43:55;27.43;;;15.07;;
2998;SDS011;1509;51.964;7.628;2023-08-01T07:46:21;29.87;;;16.90;;
2998;SDS011;1509;51.964;7.628;2023-08-01T07:48:47;30.50;;;15.97;;
2998;SDS011;1509;51.964;7.628;2023-08-01T07:51:14;24.97;;;14.37;;
2998;SDS011;1509;51.964;7.628;2023-08-01T07:53:39;22.97;;;13.77;;
2998;SDS011;1509;51.964;7.628;2023-08-01T07:56:05;24.20;;;14.30;;
2998;SDS011;1509;51.964;7.628;2023-08-01T07:58:32;23.10;;;14.60;;
2998;SDS011;1509;51.964;7.628;2023-08-01T08:01:02;34.13;;;14.20;;
2998;SDS011;1509;51.964;7.628;2023-08-01T08:03:28;31.13;;;15.13;;
2998;SDS011;1509;51.964;7.628;2023-08-01T08:05:54;29.10;;;13.33;;
2998;SDS011;1509;51.964;7.628;2023-08-01T08:08:19;24.50;;;14.40;;
2998;SDS011;1509;51.964;7.628;2023-08-01T08:10:45;22.37;;;14.17;;
2998;SDS011;1509;51.964;7.628;2023-08-01T08:13:10;24.63;;;14.17;;
2998;SDS011;1509;51.964;7.628;2023-08-01T08:15:36;21.37;;;13.77;;
2998;SDS011;1509;51.964;7.628;2023-08-01T08:18:02;27.33;;;13.57;;
2998;SDS011;1509;51.964;7.628;2023-08-01T08:20:31;18.20;;;12.03;;
2998;SDS011;1509;51.964;7.628;2023-08-01T08:22:57;20.50;;;12.30;;
2998;SDS011;1509;51.964;7.628;2023-08-01T08:25:22;18.53;;;11.83;;
2998;SDS011;1509;51.964;7.628;2023-08-01T08:27:51;22.27;;;13.37;;
2998;SDS011;1509;51.964;7.628;2023-08-01T08:30:16;18.30;;;10.57;;
2998;SDS011;1509;51.964;7.628;2023-08-01T08:32:42;17.73;;;12.77;;
2998;SDS011;1509;51.964;7.628;2023-08-01T08:35:08;16.60;;;10.53;;
2998;SDS011;1509;51.964;7.628;2023-08-01T08:37:33;16.47;;;9.43;;
2998;SDS011;1509;51.964;7.628;2023-08-01T08:39:59;13.57;;;10.07;;
2998;SDS011;1509;51.964;7.628;2023-08-01T08:42:25;17.70;;;9.97;;
2998;SDS011;1509;51.964;7.628;2023-08-01T08:44:53;15.33;;;10.57;;
2998;SDS011;1509;51.964;7.628;2023-08-01T08:47:23;19.27;;;11.10;;
2998;SDS011;1509;51.964;7.628;2023-08-01T08:49:51;14.83;;;9.40;;
2998;SDS011;1509;51.964;7.628;2023-08-01T08:52:17;14.77;;;9.80;;
2998;SDS011;1509;51.964;7.628;2023-08-01T08:54:44;20.57;;;10.30;;
2998;SDS011;1509;51.964;7.628;2023-08-01T08:57:11;16.80;;;9.67;;
2998;SDS011;1509;51.964;7.628;2023-08-01T08:59:37;12.80;;;8.63;;
2998;SDS011;1509;51.964;7.628;2023-08-01T09:02:04;13.37;;;8.83;;
2998;SDS011;1509;51.964;7.628;2023-08-01T09:04:30;14.33;;;8.20;;
2998;SDS011;1509;51.964;7.628;2023-08-01T09:06:58;10.60;;;7.10;;
2998;SDS011;1509;51.964;7.628;2023-08-01T09:09:32;8.50;;;7.10;;
2998;SDS011;1509;51.964;7.628;2023-08-01T09:11:59;10.37;;;6.30;;
2998;SDS011;1509;51.964;7.628;2023-08-01T09:14:25;14.93;;;6.47;;
2998;SDS011;1509;51.964;7.628;2023-08-01T09:16:54;12.07;;;7.00;;
2998;SDS011;1509;51.964;7.628;2023-08-01T09:19:20;12.23;;;6.70;;
2998;SDS011;1509;51.964;7.628;2023-08-01T09:21:47;8.83;;;6.70;;
2998;SDS011;1509;51.964;7.628;2023-08-01T09:24:17;8.90;;;7.07;;
2998;SDS011;1509;51.964;7.628;2023-08-01T09:26:44;10.93;;;7.33;;
2998;SDS011;1509;51.964;7.628;2023-08-01T09:29:10;11.20;;;6.73;;
2998;SDS011;1509;51.964;7.628;2023-08-01T09:31:37;12.90;;;7.83;;
2998;SDS011;1509;51.964;7.628;2023-08-01T09:34:05;12.90;;;8.70;;
2998;SDS011;1509;51.964;7.628;2023-08-01T09:36:42;10.83;;;7.93;;
2998;SDS011;1509;51.964;7.628;2023-08-01T09:39:08;13.00;;;7.73;;
2998;SDS011;1509;51.964;7.628;2023-08-01T09:41:33;13.33;;;8.27;;
2998;SDS011;1509;51.964;7.628;2023-08-01T09:43:59;9.50;;;8.13;;
2998;SDS011;1509;51.964;7.628;2023-08-01T09:46:25;9.83;;;7.40;;
2998;SDS011;1509;51.964;7.628;2023-08-01T09:48:50;7.87;;;5.60;;
2998;SDS011;1509;51.964;7.628;2023-08-01T09:51:17;7.27;;;5.43;;
2998;SDS011;1509;51.964;7.628;2023-08-01T09:53:50;6.20;;;4.60;;
2998;SDS011;1509;51.964;7.628;2023-08-01T09:56:24;8.67;;;4.47;;
2998;SDS011;1509;51.964;7.628;2023-08-01T09:58:52;6.43;;;4.03;;
2998;SDS011;1509;51.964;7.628;2023-08-01T10:01:21;8.37;;;4.63;;
2998;SDS011;1509;51.964;7.628;2023-08-01T10:03:51;12.60;;;4.80;;
2998;SDS011;1509;51.964;7.628;2023-08-01T10:06:24;7.57;;;4.15;;
2998;SDS011;1509;51.964;7.628;2023-08-01T10:08:54;4.20;;;3.47;;
2998;SDS011;1509;51.964;7.628;2023-08-01T10:11:20;7.57;;;3.90;;
2998;SDS011;1509;51.964;7.628;2023-08-01T10:13:47;5.70;;;4.20;;
2998;SDS011;1509;51.964;7.628;2023-08-01T10:16:13;12.60;;;5.13;;
2998;SDS011;1509;51.964;7.628;2023-08-01T10:18:40;7.07;;;4.57;;
2998;SDS011;1509;51.964;7.628;2023-08-01T10:21:09;12.63;;;4.80;;
2998;SDS011;1509;51.964;7.628;2023-08-01T10:23:38;9.10;;;5.10;;
2998;SDS011;1509;51.964;7.628;2023-08-01T10:26:06;9.93;;;5.97;;
2998;SDS011;1509;51.964;7.628;2023-08-01T10:28:34;9.40;;;6.97;;
2998;SDS011;1509;51.964;7.628;2023-08-01T10:31:11;15.97;;;5.83;;
2998;SDS011;1509;51.964;7.628;2023-08-01T10:33:41;11.00;;;5.90;;
2998;SDS011;1509;51.964;7.628;2023-08-01T10:36:17;11.30;;;5.67;;
2998;SDS011;1509;51.964;7.628;2023-08-01T10:38:55;8.33;;;5.67;;
2998;SDS011;1509;51.964;7.628;2023-08-01T10:44:04;9.13;;;5.77;;
2998;SDS011;1509;51.964;7.628;2023-08-01T10:49:18;10.20;;;6.23;;
2998;SDS011;1509;51.964;7.628;2023-08-01T10:51:46;12.00;;;6.70;;
2998;SDS011;1509;51.964;7.628;2023-08-01T10:54:25;10.43;;;7.20;;
2998;SDS011;1509;51.964;7.628;2023-08-01T10:56:52;6.70;;;5.10;;
2998;SDS011;1509;51.964;7.628;2023-08-01T10:59:19;10.03;;;4.30;;
2998;SDS011;1509;51.964;7.628;2023-08-01T11:01:47;6.03;;;4.23;;
2998;SDS011;1509;51.964;7.628;2023-08-01T11:04:22;9.40;;;4.87;;
2998;SDS011;1509;51.964;7.628;2023-08-01T11:06:49;6.73;;;5.00;;
2998;SDS011;1509;51.964;7.628;2023-08-01T11:09:16;8.67;;;4.67;;
2998;SDS011;1509;51.964;7.628;2023-08-01T11:11:43;9.20;;;5.30;;
2998;SDS011;1509;51.964;7.628;2023-08-01T11:14:09;6.17;;;4.27;;
2998;SDS011;1509;51.964;7.628;2023-08-01T11:16:38;13.77;;;4.30;;
2998;SDS011;1509;51.964;7.628;2023-08-01T11:19:04;7.27;;;4.00;;
2998;SDS011;1509;51.964;7.628;2023-08-01T11:21:30;7.60;;;4.83;;
2998;SDS011;1509;51.964;7.628;2023-08-01T11:23:56;12.73;;;4.50;;
2998;SDS011;1509;51.964;7.628;2023-08-01T11:26:22;8.80;;;4.40;;
2998;SDS011;1509;51.964;7.628;2023-08-01T11:28:48;7.37;;;4.23;;
2998;SDS011;1509;51.964;7.628;2023-08-01T11:31:13;8.97;;;4.00;;
2998;SDS011;1509;51.964;7.628;2023-08-01T11:33:39;7.20;;;3.57;;
2998;SDS011;1509;51.964;7.628;2023-08-01T11:36:05;5.63;;;3.00;;
2998;SDS011;1509;51.964;7.628;2023-08-01T11:38:32;4.20;;;3.13;;
2998;SDS011;1509;51.964;7.628;2023-08-01T11:41:03;5.63;;;3.53;;
2998;SDS011;1509;51.964;7.628;2023-08-01T11:43:41;5.90;;;3.70;;
2998;SDS011;1509;51.964;7.628;2023-08-01T11:46:07;4.83;;;3.27;;
2998;SDS011;1509;51.964;7.628;2023-08-01T11:48:34;5.47;;;4.03;;
2998;SDS011;1509;51.964;7.628;2023-08-01T11:51:01;5.53;;;3.63;;
2998;SDS011;1509;51.964;7.628;2023-08-01T11:53:27;9.37;;;4.20;;
2998;SDS011;1509;51.964;7.628;2023-08-01T11:55:54;8.87;;;4.00;;
2998;SDS011;1509;51.964;7.628;2023-08-01T11:58:31;3.90;;;3.20;;
2998;SDS011;1509;51.964;7.628;2023-08-01T12:01:05;7.90;;;3.97;;
2998;SDS011;1509;51.964;7.628;2023-08-01T12:06:09;7.00;;;4.27;;
2998;SDS011;1509;51.964;7.628;2023-08-01T12:08:36;10.20;;;4.37;;
2998;SDS011;1509;51.964;7.628;2023-08-01T12:11:02;4.43;;;3.67;;
2998;SDS011;1509;51.964;7.628;2023-08-01T12:13:28;5.80;;;3.67;;
2998;SDS011;1509;51.964;7.628;2023-08-01T12:15:56;7.43;;;4.20;;
2998;SDS011;1509;51.964;7.628;2023-08-01T12:18:23;6.97;;;3.40;;
2998;SDS011;1509;51.964;7.628;2023-08-01T12:20:50;5.60;;;3.07;;
2998;SDS011;1509;51.964;7.628;2023-08-01T12:23:16;4.10;;;3.03;;
2998;SDS011;1509;51.964;7.628;2023-08-01T12:25:42;4.50;;;3.20;;
2998;SDS011;1509;51.964;7.628;2023-08-01T12:28:08;5.93;;;3.20;;
2998;SDS011;1509;51.964;7.628;2023-08-01T12:30:33;7.77;;;3.03;;
2998;SDS011;1509;51.964;7.628;2023-08-01T12:32:59;5.13;;;3.30;;
2998;SDS011;1509;51.964;7.628;2023-08-01T12:35:25;6.40;;;2.90;;
2998;SDS011;1509;51.964;7.628;2023-08-01T12:37:52;4.90;;;2.77;;
2998;SDS011;1509;51.964;7.628;2023-08-01T12:40:18;4.50;;;3.27;;
2998;SDS011;1509;51.964;7.628;2023-08-01T12:42:46;5.60;;;4.07;;
2998;SDS011;1509;51.964;7.628;2023-08-01T12:45:11;8.60;;;4.60;;
2998;SDS011;1509;51.964;7.628;2023-08-01T12:47:37;6.80;;;5.10;;
2998;SDS011;1509;51.964;7.628;2023-08-01T12:50:03;6.00;;;5.33;;
2998;SDS011;1509;51.964;7.628;2023-08-01T12:52:29;6.47;;;5.03;;
2998;SDS011;1509;51.964;7.628;2023-08-01T12:54:55;9.50;;;5.80;;
2998;SDS011;1509;51.964;7.628;2023-08-01T12:57:20;8.00;;;5.80;;
2998;SDS011;1509;51.964;7.628;2023-08-01T12:59:46;12.00;;;5.27;;
2998;SDS011;1509;51.964;7.628;2023-08-01T13:02:13;7.83;;;5.70;;
2998;SDS011;1509;51.964;7.628;2023-08-01T13:04:39;13.73;;;6.00;;
2998;SDS011;1509;51.964;7.628;2023-08-01T13:07:05;7.20;;;5.43;;
2998;SDS011;1509;51.964;7.628;2023-08-01T13:09:30;7.97;;;4.90;;
2998;SDS011;1509;51.964;7.628;2023-08-01T13:11:56;9.57;;;5.10;;
2998;SDS011;1509;51.964;7.628;2023-08-01T13:14:23;7.90;;;4.70;;
2998;SDS011;1509;51.964;7.628;2023-08-01T13:16:49;5.17;;;4.33;;
2998;SDS011;1509;51.964;7.628;2023-08-01T13:19:15;9.83;;;4.93;;
2998;SDS011;1509;51.964;7.628;2023-08-01T13:21:41;12.60;;;5.03;;
2998;SDS011;1509;51.964;7.628;2023-08-01T13:24:06;9.63;;;4.80;;
2998;SDS011;1509;51.964;7.628;2023-08-01T13:26:32;5.97;;;3.83;;
2998;SDS011;1509;51.964;7.628;2023-08-01T13:28:59;6.03;;;4.27;;
2998;SDS011;1509;51.964;7.628;2023-08-01T13:31:27;4.20;;;3.30;;
2998;SDS011;1509;51.964;7.628;2023-08-01T13:33:53;3.80;;;3.00;;
2998;SDS011;1509;51.964;7.628;2023-08-01T13:36:23;4.73;;;2.80;;
2998;SDS011;1509;51.964;7.628;2023-08-01T13:38:51;5.57;;;2.53;;
2998;SDS011;1509;51.964;7.628;2023-08-01T13:41:17;5.87;;;4.43;;
2998;SDS011;1509;51.964;7.628;2023-08-01T13:43:42;3.93;;;2.73;;
2998;SDS011;1509;51.964;7.628;2023-08-01T13:48:44;6.53;;;3.00;;
2998;SDS011;1509;51.964;7.628;2023-08-01T13:51:11;3.87;;;2.27;;
2998;SDS011;1509;51.964;7.628;2023-08-01T13:53:37;6.30;;;2.53;;
2998;SDS011;1509;51.964;7.628;2023-08-01T13:56:12;5.80;;;2.70;;
2998;SDS011;1509;51.964;7.628;2023-08-01T13:58:38;7.63;;;2.83;;
2998;SDS011;1509;51.964;7.628;2023-08-01T14:01:05;4.10;;;2.50;;
2998;SDS011;1509;51.964;7.628;2023-08-01T14:03:37;6.67;;;3.10;;
2998;SDS011;1509;51.964;7.628;2023-08-01T14:06:07;8.30;;;2.23;;
2998;SDS011;1509;51.964;7.628;2023-08-01T14:08:38;6.23;;;2.57;;
2998;SDS011;1509;51.964;7.628;2023-08-01T14:11:05;2.40;;;1.80;;
2998;SDS011;1509;51.964;7.628;2023-08-01T14:13:32;5.67;;;2.27;;
2998;SDS011;1509;51.964;7.628;2023-08-01T14:15:58;7.00;;;2.33;;
2998;SDS011;1509;51.964;7.628;2023-08-01T14:18:24;3.03;;;1.93;;
2998;SDS011;1509;51.964;7.628;2023-08-01T14:20:50;3.50;;;2.00;;
2998;SDS011;1509;51.964;7.628;2023-08-01T14:23:16;3.50;;;2.20;;
2998;SDS011;1509;51.964;7.628;2023-08-01T14:25:42;6.00;;;2.20;;
2998;SDS011;1509;51.964;7.628;2023-08-01T14:28:10;4.17;;;2.30;;
2998;SDS011;1509;51.964;7.628;2023-08-01T14:30:36;7.50;;;2.53;;
2998;SDS011;1509;51.964;7.628;2023-08-01T14:33:06;4.27;;;2.13;;
2998;SDS011;1509;51.964;7.628;2023-08-01T14:35:37;6.10;;;2.70;;
2998;SDS011;1509;51.964;7.628;2023-08-01T14:38:03;6.20;;;2.50;;
2998;SDS011;1509;51.964;7.628;2023-08-01T14:40:32;3.57;;;1.70;;
2998;SDS011;1509;51.964;7.628;2023-08-01T14:43:00;5.50;;;2.50;;
2998;SDS011;1509;51.964;7.628;2023-08-01T14:45:26;4.00;;;2.37;;
2998;SDS011;1509;51.964;7.628;2023-08-01T14:47:52;4.53;;;2.27;;
2998;SDS011;1509;51.964;7.628;2023-08-01T14:50:21;6.43;;;2.33;;
2998;SDS011;1509;51.964;7.628;2023-08-01T14:52:46;4.40;;;2.40;;
2998;SDS011;1509;51.964;7.628;2023-08-01T14:55:12;4.37;;;2.50;;
2998;SDS011;1509;51.964;7.628;2023-08-01T14:57:37;6.90;;;2.70;;
2998;SDS011;1509;51.964;7.628;2023-08-01T15:00:03;6.33;;;2.67;;
2998;SDS011;1509;51.964;7.628;2023-08-01T15:02:29;6.13;;;2.83;;
2998;SDS011;1509;51.964;7.628;2023-08-01T15:04:55;4.00;;;2.60;;
2998;SDS011;1509;51.964;7.628;2023-08-01T15:07:22;6.50;;;2.80;;
2998;SDS011;1509;51.964;7.628;2023-08-01T15:09:48;3.87;;;2.60;;
2998;SDS011;1509;51.964;7.628;2023-08-01T15:12:15;5.10;;;2.50;;